Time;durP1;ratioP1;P1;durP2;ratioP2;P2;SDS_P1;SDS_P2;PMS_P1;PMS_P2;Temp;Humidity;BMP_temperature;BMP_pressure;BME280_temperature;BME280_humidity;BME280_pressure;Samples;Min_cycle;Max_cycle;Signal;HPM_P1;HPM_P2
2023/09/02 00:00:57;;;;;;;6.15;4.80;;;;;;;14.90;100.00;98608.94;4173251;28;20059;-74
2023/09/02 00:02:58;;;;;;;8.52;5.50;;;;;;;14.93;100.00;98616.47;4172939;28;20076;-74
2023/09/02 00:04:58;;;;;;;7.70;5.20;;;;;;;14.94;100.00;98614.47;4173661;28;20065;-74
2023/09/02 00:06:59;;;;;;;7.45;5.30;;;;;;;14.92;100.00;98612.09;4172905;28;20128;-74
2023/09/02 00:08:59;;;;;;;9.82;6.13;;;;;;;14.93;100.00;98615.69;4172819;28;20056;-74
2023/09/02 00:10:59;;;;;;;10.88;5.65;;;;;;;14.93;100.00;98615.69;4173230;28;20045;-74
2023/09/02 00:13:00;;;;;;;6.72;5.13;;;;;;;14.93;100.00;98626.81;4171933;28;20049;-74
2023/09/02 00:15:01;;;;;;;8.90;4.95;;;;;;;14.91;100.00;98621.66;4172145;28;20277;-74
2023/09/02 00:17:01;;;;;;;8.52;5.10;;;;;;;14.89;100.00;98619.28;4173159;28;20049;-74
2023/09/02 00:19:03;;;;;;;7.55;5.10;;;;;;;14.85;100.00;98626.84;4172883;28;20136;-74
2023/09/02 00:21:03;;;;;;;7.47;5.25;;;;;;;14.83;100.00;98625.66;4173135;28;20056;-74
2023/09/02 00:23:04;;;;;;;7.63;5.55;;;;;;;14.83;100.00;98620.09;4171645;28;20149;-74
2023/09/02 00:25:04;;;;;;;8.27;4.78;;;;;;;14.82;100.00;98622.09;4172238;28;20128;-74
2023/09/02 00:27:05;;;;;;;6.80;5.05;;;;;;;14.79;100.00;98616.50;4172779;28;20092;-74
2023/09/02 00:29:05;;;;;;;5.90;4.90;;;;;;;14.78;100.00;98621.28;4172697;28;20048;-74
2023/09/02 00:31:06;;;;;;;9.05;5.20;;;;;;;14.77;100.00;98614.13;4173184;28;20098;-74
2023/09/02 00:33:07;;;;;;;8.65;4.38;;;;;;;14.78;100.00;98614.91;4171939;28;20087;-74
2023/09/02 00:35:07;;;;;;;6.35;4.90;;;;;;;14.79;100.00;98619.28;4172930;28;20076;-74
2023/09/02 00:37:07;;;;;;;8.38;5.32;;;;;;;14.76;100.00;98628.47;4172535;28;20037;-74
2023/09/02 00:39:08;;;;;;;7.25;4.82;;;;;;;14.77;100.00;98624.47;4172725;28;20041;-74
2023/09/02 00:41:14;;;;;;;5.50;4.35;;;;;;;14.80;100.00;98632.03;4172345;28;20048;-74
2023/09/02 00:43:14;;;;;;;8.07;4.70;;;;;;;14.78;100.00;98618.50;4171643;28;20052;-74
2023/09/02 00:45:15;;;;;;;8.30;5.00;;;;;;;14.79;100.00;98616.50;4172251;28;20512;-74
2023/09/02 00:47:16;;;;;;;7.28;4.82;;;;;;;14.76;100.00;98609.75;4172770;28;20041;-74
2023/09/02 00:49:16;;;;;;;5.82;4.38;;;;;;;14.77;100.00;98616.13;4172449;28;20508;-74
2023/09/02 00:51:17;;;;;;;6.78;4.30;;;;;;;14.75;100.00;98616.53;4172080;28;20053;-74
2023/09/02 00:53:18;;;;;;;6.63;4.57;;;;;;;14.76;100.00;98618.13;4172025;28;20628;-74
2023/09/02 00:55:20;;;;;;;7.38;4.38;;;;;;;14.77;100.00;98627.25;4171897;28;20272;-74
2023/09/02 00:57:20;;;;;;;8.07;4.87;;;;;;;14.75;100.00;98624.09;4172230;28;20057;-74
2023/09/02 00:59:21;;;;;;;4.80;3.72;;;;;;;14.75;100.00;98629.66;4172663;28;20278;-74
2023/09/02 01:01:21;;;;;;;7.25;4.10;;;;;;;14.76;100.00;98631.25;4172597;28;20045;-74
2023/09/02 01:03:21;;;;;;;5.80;3.97;;;;;;;14.77;100.00;98628.06;4171092;28;20504;-74
2023/09/02 01:05:22;;;;;;;4.47;3.65;;;;;;;14.80;100.00;98637.59;4172209;28;20064;-74
2023/09/02 01:07:24;;;;;;;7.55;4.28;;;;;;;14.79;100.00;98622.06;4172640;28;20041;-74
2023/09/02 01:09:24;;;;;;;6.57;4.28;;;;;;;14.76;100.00;98629.25;4171950;28;20045;-74
2023/09/02 01:11:25;;;;;;;5.32;3.95;;;;;;;14.77;100.00;98628.06;4172238;28;20407;-74
2023/09/02 01:13:27;;;;;;;4.60;3.85;;;;;;;14.76;100.00;98617.31;4171798;28;20053;-74
2023/09/02 01:15:27;;;;;;;4.93;3.72;;;;;;;14.72;100.00;98622.88;4172219;28;20040;-74
2023/09/02 01:17:27;;;;;;;5.00;3.83;;;;;;;14.71;100.00;98617.72;4172295;28;20116;-74
2023/09/02 01:19:28;;;;;;;6.35;4.00;;;;;;;14.66;100.00;98604.22;4172461;28;20041;-74
2023/09/02 01:21:39;;;;;;;5.88;3.67;;;;;;;14.66;100.00;98612.59;4172199;28;20045;-74
2023/09/02 01:23:45;;;;;;;5.78;3.75;;;;;;;14.61;100.00;98613.78;4171355;28;20140;-74
2023/09/02 01:25:51;;;;;;;6.28;3.85;;;;;;;14.57;100.00;98616.59;4172616;28;20049;-74
2023/09/02 01:28:00;;;;;;;6.90;4.10;;;;;;;14.52;100.00;98610.63;4175600;28;20408;-74
2023/09/02 01:30:11;;;;;;;10.43;4.20;;;;;;;14.49;100.00;98617.00;4175814;28;20044;-74
2023/09/02 01:32:14;;;;;;;6.35;4.57;;;;;;;14.39;100.00;98604.63;4174965;28;20190;-74
2023/09/02 01:34:18;;;;;;;4.97;3.60;;;;;;;14.34;100.00;98611.41;4174744;28;20020;-74
2023/09/02 01:36:22;;;;;;;4.53;3.30;;;;;;;14.31;100.00;98619.75;4175498;28;20140;-74
2023/09/02 01:38:24;;;;;;;9.30;3.95;;;;;;;14.27;100.00;98622.56;4175708;28;20098;-74
2023/09/02 01:40:27;;;;;;;5.40;3.13;;;;;;;14.25;100.00;98616.59;4175167;28;20049;-74
2023/09/02 01:42:28;;;;;;;4.90;3.60;;;;;;;14.28;100.00;98623.34;4175127;28;20053;-74
2023/09/02 01:44:30;;;;;;;4.90;3.10;;;;;;;14.21;100.00;98626.94;4175190;28;20045;-74
2023/09/02 01:46:31;;;;;;;5.57;3.88;;;;;;;14.18;100.00;98627.72;4176099;28;20411;-74
2023/09/02 01:48:32;;;;;;;7.38;3.22;;;;;;;14.20;100.00;98633.69;4175417;28;20045;-74
2023/09/02 01:50:33;;;;;;;3.78;2.90;;;;;;;14.20;100.00;98632.91;4175163;28;20067;-74
2023/09/02 01:52:34;;;;;;;5.35;4.10;;;;;;;14.24;100.00;98644.84;4174375;28;20163;-74
2023/09/02 01:54:35;;;;;;;6.95;3.92;;;;;;;14.24;100.00;98634.50;4175206;28;20420;-74
2023/09/02 01:56:37;;;;;;;6.15;3.85;;;;;;;14.27;100.00;98638.47;4175108;28;20427;-74
2023/09/02 01:58:37;;;;;;;6.53;4.32;;;;;;;14.26;100.00;98634.09;4175209;28;20064;-74
2023/09/02 02:00:40;;;;;;;6.47;4.15;;;;;;;14.28;100.00;98642.84;4175009;28;20073;-74
2023/09/02 02:02:42;;;;;;;9.75;4.35;;;;;;;14.28;100.00;98643.63;4174421;28;20052;-74
2023/09/02 02:04:47;;;;;;;6.45;4.43;;;;;;;14.31;100.00;98644.81;4175157;28;20151;-74
2023/09/02 02:06:53;;;;;;;5.63;4.25;;;;;;;14.31;100.00;98642.84;4175064;28;20053;-74
2023/09/02 02:09:05;;;;;;;6.25;4.30;;;;;;;14.35;100.00;98651.19;4174982;28;20461;-74
2023/09/02 02:11:06;;;;;;;6.20;4.20;;;;;;;14.34;100.00;98646.81;4175006;28;20333;-74
2023/09/02 02:13:07;;;;;;;5.53;4.00;;;;;;;14.35;100.00;98651.19;4174313;28;20048;-74
2023/09/02 02:15:10;;;;;;;6.38;4.43;;;;;;;14.38;100.00;98650.38;4174860;28;20044;-74
2023/09/02 02:17:11;;;;;;;5.25;3.60;;;;;;;14.36;100.00;98647.19;4175030;28;20417;-74
2023/09/02 02:19:11;;;;;;;5.78;3.42;;;;;;;14.36;100.00;98655.56;4175147;28;20048;-74
2023/09/02 02:21:12;;;;;;;7.55;4.00;;;;;;;14.34;100.00;98653.16;4174676;28;20041;-74
2023/09/02 02:23:12;;;;;;;5.22;3.45;;;;;;;14.35;100.00;98645.63;4173965;28;20045;-74
2023/09/02 02:25:12;;;;;;;5.68;3.38;;;;;;;14.36;100.00;98651.97;4174999;28;20053;-74
2023/09/02 02:27:13;;;;;;;4.43;3.42;;;;;;;14.31;100.00;98644.81;4174940;28;20045;-74
2023/09/02 02:29:14;;;;;;;5.50;3.80;;;;;;;14.32;100.00;98652.78;4174547;28;20158;-74
2023/09/02 02:31:14;;;;;;;8.75;4.10;;;;;;;14.29;100.00;98664.69;4174838;28;20496;-74
2023/09/02 02:33:14;;;;;;;6.82;4.10;;;;;;;14.26;100.00;98665.50;4174105;28;20164;-74
2023/09/02 02:35:15;;;;;;;5.63;3.97;;;;;;;14.20;100.00;98664.31;4173005;28;20041;-74
2023/09/02 02:37:15;;;;;;;4.90;3.42;;;;;;;14.17;100.00;98664.31;4173266;28;20041;-74
2023/09/02 02:39:16;;;;;;;9.77;4.13;;;;;;;14.11;100.00;98663.91;4174437;28;20037;-74
2023/09/02 02:41:17;;;;;;;6.72;3.47;;;;;;;14.10;100.00;98665.09;4174451;28;20531;-74
2023/09/02 02:43:23;;;;;;;5.45;3.53;;;;;;;14.04;100.00;98653.56;4173500;28;20195;-74
2023/09/02 02:45:23;;;;;;;4.95;3.25;;;;;;;14.03;100.00;98670.66;4174436;28;20053;-74
2023/09/02 02:47:23;;;;;;;8.25;3.30;;;;;;;13.93;100.00;98674.22;4174706;28;20094;-74
2023/09/02 02:49:24;;;;;;;5.00;3.42;;;;;;;13.89;100.00;98668.66;4174276;28;20132;-74
2023/09/02 02:51:24;;;;;;;4.80;3.42;;;;;;;13.87;100.00;98679.38;4173468;28;20041;-74
2023/09/02 02:53:25;;;;;;;6.47;3.28;;;;;;;13.82;100.00;98682.56;4173505;28;20059;-74
2023/09/02 02:55:25;;;;;;;8.18;3.63;;;;;;;13.74;100.00;98670.63;4174499;28;20044;-74
2023/09/02 02:57:25;;;;;;;6.28;3.05;;;;;;;13.71;100.00;98671.41;4173543;28;20537;-74
2023/09/02 02:59:26;;;;;;;6.10;3.95;;;;;;;13.61;100.00;98674.97;4174352;28;20040;-74
2023/09/02 03:01:26;;;;;;;5.60;3.63;;;;;;;13.56;100.00;98672.56;4174319;28;20315;-74
2023/09/02 03:03:26;;;;;;;93.05;8.20;;;;;;;13.53;100.00;98667.00;4173321;28;20611;-74
2023/09/02 03:05:27;;;;;;;55.90;6.57;;;;;;;13.52;100.00;98676.53;4174036;28;20106;-74
2023/09/02 03:07:27;;;;;;;22.75;6.18;;;;;;;13.51;100.00;98689.63;4173791;28;20049;-74
2023/09/02 03:09:28;;;;;;;22.05;5.25;;;;;;;13.51;100.00;98684.06;4174094;28;20437;-74
2023/09/02 03:11:28;;;;;;;11.55;5.65;;;;;;;13.50;100.00;98693.59;4173616;28;20276;-74
2023/09/02 03:13:30;;;;;;;26.38;4.38;;;;;;;13.48;100.00;98696.75;4173642;28;20545;-74
2023/09/02 03:15:31;;;;;;;30.35;4.10;;;;;;;13.41;100.00;98684.84;4173845;28;20041;-74
2023/09/02 03:17:32;;;;;;;7.95;2.60;;;;;;;13.35;100.00;98701.09;4173838;28;20068;-74
2023/09/02 03:19:32;;;;;;;6.13;3.00;;;;;;;13.28;100.00;98692.72;4164558;28;20578;-74
2023/09/02 03:21:32;;;;;;;21.63;3.92;;;;;;;13.27;100.00;98693.91;4173465;28;20057;-74
2023/09/02 03:23:34;;;;;;;11.32;3.17;;;;;;;13.25;100.00;98687.97;4173502;28;20097;-74
2023/09/02 03:25:35;;;;;;;12.52;3.60;;;;;;;13.21;100.00;98687.13;4159519;28;20049;-74
2023/09/02 03:27:39;;;;;;;9.32;2.78;;;;;;;13.19;100.00;98687.53;4174316;28;20136;-74
2023/09/02 03:29:40;;;;;;;21.50;3.55;;;;;;;13.20;100.00;98693.88;4173752;28;20124;-74
2023/09/02 03:31:40;;;;;;;11.05;2.58;;;;;;;13.16;100.00;98687.50;4173058;28;20155;-74
2023/09/02 03:33:40;;;;;;;7.78;2.63;;;;;;;13.14;100.00;98682.31;4173241;28;20520;-74
2023/09/02 03:35:41;;;;;;;16.65;2.90;;;;;;;13.14;100.00;98690.63;4173301;28;20485;-74
2023/09/02 03:37:43;;;;;;;15.43;2.92;;;;;;;13.11;100.00;98693.41;4172596;28;20045;-74
2023/09/02 03:39:43;;;;;;;5.68;2.75;;;;;;;13.10;100.00;98691.81;4173803;28;20255;-74
2023/09/02 03:41:46;;;;;;;20.38;3.13;;;;;;;13.10;100.00;98698.16;4173419;28;20755;-74
2023/09/02 03:43:47;;;;;;;13.80;2.67;;;;;;;13.11;100.00;98696.19;4173133;28;20075;-74
2023/09/02 03:45:48;;;;;;;6.20;2.65;;;;;;;13.13;100.00;98702.16;4173471;28;20041;-74
2023/09/02 03:47:48;;;;;;;6.22;2.95;;;;;;;13.14;100.00;98692.63;4173507;28;20037;-74
2023/09/02 03:49:51;;;;;;;4.50;2.80;;;;;;;13.17;100.00;98700.19;4173287;28;20536;-74
2023/09/02 03:51:51;;;;;;;6.53;2.53;;;;;;;13.19;100.00;98701.41;4173307;28;20047;-74
2023/09/02 03:53:51;;;;;;;11.43;3.13;;;;;;;13.20;100.00;98699.44;4172705;28;20049;-74
2023/09/02 03:55:52;;;;;;;5.05;2.90;;;;;;;13.22;100.00;98697.06;4173270;28;20045;-74
2023/09/02 03:57:52;;;;;;;4.10;2.97;;;;;;;13.23;100.00;98700.63;4173821;28;20133;-74
2023/09/02 03:59:53;;;;;;;7.68;2.72;;;;;;;13.23;100.00;98708.97;4173435;28;20041;-74
2023/09/02 04:01:54;;;;;;;8.50;2.70;;;;;;;13.24;100.00;98718.88;4173052;28;20041;-74
2023/09/02 04:03:54;;;;;;;5.53;3.17;;;;;;;13.26;100.00;98720.09;4172200;28;20076;-74
2023/09/02 04:05:54;;;;;;;4.32;3.20;;;;;;;13.27;100.00;98712.56;4173352;28;20487;-74
2023/09/02 04:07:55;;;;;;;13.57;3.95;;;;;;;13.29;100.00;98715.75;4172962;28;20048;-74
2023/09/02 04:09:56;;;;;;;6.72;3.20;;;;;;;13.32;100.00;98723.28;4173201;28;20136;-74
2023/09/02 04:12:00;;;;;;;16.45;4.13;;;;;;;13.33;100.00;98725.69;4173682;28;20028;-73
2023/09/02 04:14:02;;;;;;;4.85;3.00;;;;;;;13.33;100.00;98725.69;4171932;28;20048;-74
2023/09/02 04:16:02;;;;;;;11.55;3.38;;;;;;;13.30;100.00;98732.03;4171596;28;20522;-74
2023/09/02 04:18:03;;;;;;;6.85;3.08;;;;;;;13.33;100.00;98731.25;4173169;28;20076;-74
2023/09/02 04:20:04;;;;;;;8.77;3.85;;;;;;;13.33;100.00;98744.38;4172992;28;20037;-74
2023/09/02 04:22:05;;;;;;;6.28;3.67;;;;;;;13.33;100.00;98742.38;4172755;28;20493;-74
2023/09/02 04:24:05;;;;;;;5.75;2.92;;;;;;;13.31;100.00;98750.28;4172176;28;20079;-75
2023/09/02 04:26:05;;;;;;;4.95;3.42;;;;;;;13.31;100.00;98744.72;4173149;28;20091;-74
2023/09/02 04:28:06;;;;;;;20.52;4.00;;;;;;;13.31;100.00;98755.03;4173053;28;20420;-74
2023/09/02 04:30:07;;;;;;;4.03;2.92;;;;;;;13.32;100.00;98751.06;4172562;28;20115;-74
2023/09/02 04:32:09;;;;;;;9.15;3.67;;;;;;;13.34;100.00;98751.50;4172554;28;20039;-74
2023/09/02 04:34:10;;;;;;;;;;;;;;;13.36;100.00;98752.69;4172239;28;20049;-74
2023/09/02 04:36:10;;;;;;;5.60;3.35;;;;;;;13.36;100.00;98749.13;4172097;28;20015;-74
2023/09/02 04:38:11;;;;;;;24.83;5.40;;;;;;;13.34;100.00;98749.53;4172856;28;20058;-74
2023/09/02 04:40:12;;;;;;;16.80;5.35;;;;;;;13.36;100.00;98752.69;4173066;28;20040;-74
2023/09/02 04:42:12;;;;;;;17.27;4.68;;;;;;;13.36;100.00;98768.56;4172298;28;20642;-74
2023/09/02 04:44:16;;;;;;;41.88;5.45;;;;;;;13.34;100.00;98752.31;4171405;28;20505;-74
2023/09/02 04:46:17;;;;;;;12.77;3.88;;;;;;;13.35;100.00;98764.22;4172806;28;20067;-74
2023/09/02 04:48:17;;;;;;;33.25;4.70;;;;;;;13.38;100.00;98771.75;4172470;28;20029;-74
2023/09/02 04:50:18;;;;;;;22.13;4.82;;;;;;;13.34;100.00;98768.19;4172471;28;20032;-74
2023/09/02 04:52:19;;;;;;;8.50;4.57;;;;;;;13.32;100.00;98768.56;4172638;28;20366;-74
2023/09/02 04:54:20;;;;;;;8.60;3.53;;;;;;;13.34;100.00;98774.53;4170982;28;20100;-74
2023/09/02 04:56:20;;;;;;;11.27;4.18;;;;;;;13.33;100.00;98763.81;4173165;28;20037;-74
2023/09/02 04:58:22;;;;;;;6.03;3.72;;;;;;;13.36;100.00;98768.56;4172551;28;20146;-74
2023/09/02 05:00:24;;;;;;;5.60;3.72;;;;;;;13.39;100.00;98763.03;4171645;28;20041;-74
2023/09/02 05:02:24;;;;;;;10.70;4.13;;;;;;;13.43;100.00;98763.84;4171840;28;20041;-74
2023/09/02 05:04:25;;;;;;;10.30;4.18;;;;;;;13.47;100.00;98770.22;4158395;28;20049;-72
2023/09/02 05:06:25;;;;;;;6.20;3.70;;;;;;;13.50;100.00;98765.88;4170156;28;20041;-73
2023/09/02 05:08:31;;;;;;;11.55;4.15;;;;;;;13.50;100.00;98768.66;4172157;28;20043;-73
2023/09/02 05:10:32;;;;;;;4.93;3.35;;;;;;;13.53;100.00;98767.06;4172469;28;20140;-73
2023/09/02 05:12:33;;;;;;;6.47;4.10;;;;;;;13.56;100.00;98769.84;4171907;28;20049;-73
2023/09/02 05:14:34;;;;;;;10.50;3.78;;;;;;;13.59;100.00;98779.41;4171823;28;20036;-73
2023/09/02 05:16:34;;;;;;;4.88;3.53;;;;;;;13.59;100.00;98785.75;4159334;28;20085;-73
2023/09/02 05:18:35;;;;;;;4.93;3.50;;;;;;;13.64;100.00;98784.56;4171947;28;20120;-73
2023/09/02 05:20:35;;;;;;;7.40;3.72;;;;;;;13.67;100.00;98790.16;4172336;28;20121;-73
2023/09/02 05:22:36;;;;;;;5.32;3.30;;;;;;;13.70;100.00;98777.47;4171779;28;20447;-73
2023/09/02 05:24:36;;;;;;;8.00;4.00;;;;;;;13.71;100.00;98776.28;4171864;28;20480;-73
2023/09/02 05:26:36;;;;;;;4.57;3.08;;;;;;;13.71;100.00;98773.50;4172511;28;20041;-73
2023/09/02 05:28:37;;;;;;;6.72;3.72;;;;;;;13.75;100.00;98777.88;4172093;28;20068;-73
2023/09/02 05:30:37;;;;;;;9.10;3.50;;;;;;;13.77;100.00;98774.72;4171981;28;20512;-73
2023/09/02 05:32:37;;;;;;;5.10;3.28;;;;;;;13.81;100.00;98777.50;4170901;28;20504;-73
2023/09/02 05:34:38;;;;;;;8.95;3.97;;;;;;;13.85;100.00;98776.31;4172354;28;20041;-73
2023/09/02 05:36:38;;;;;;;5.00;3.35;;;;;;;13.86;100.00;98777.13;4171949;28;20545;-73
2023/09/02 05:38:38;;;;;;;4.57;3.20;;;;;;;13.87;100.00;98776.72;4172713;28;20243;-73
2023/09/02 05:40:41;;;;;;;4.53;3.15;;;;;;;13.88;100.00;98780.31;4171777;28;20138;-73
2023/09/02 05:42:41;;;;;;;5.15;2.92;;;;;;;13.89;100.00;98788.25;4171092;28;20481;-73
2023/09/02 05:44:42;;;;;;;9.20;3.22;;;;;;;13.91;100.00;98790.66;4172525;28;20037;-73
2023/09/02 05:46:42;;;;;;;4.07;3.10;;;;;;;13.91;100.00;98788.66;4171942;28;20114;-73
2023/09/02 05:48:43;;;;;;;6.35;3.80;;;;;;;13.92;100.00;98787.47;4172238;28;20505;-73
2023/09/02 05:50:43;;;;;;;6.57;3.33;;;;;;;13.92;100.00;98783.91;4171663;28;20053;-73
2023/09/02 05:52:43;;;;;;;6.35;2.70;;;;;;;13.92;100.00;98795.81;4171283;28;20048;-73
2023/09/02 05:54:44;;;;;;;3.38;2.70;;;;;;;13.94;100.00;98796.22;4172324;28;20071;-73
2023/09/02 05:56:46;;;;;;;4.03;2.90;;;;;;;13.94;100.00;98793.44;4172019;28;20171;-73
2023/09/02 05:58:46;;;;;;;;;;;;;;;13.95;100.00;98805.34;4172523;28;20057;-73
2023/09/02 06:00:47;;;;;;;3.50;2.65;;;;;;;13.95;100.00;98799.78;4156983;28;19913;-73
2023/09/02 06:02:47;;;;;;;5.43;3.10;;;;;;;13.96;100.00;98801.38;4170655;28;20581;-73
2023/09/02 06:04:47;;;;;;;3.47;2.67;;;;;;;13.98;100.00;98807.34;4171300;28;20049;-73
2023/09/02 06:06:48;;;;;;;4.55;2.70;;;;;;;13.94;100.00;98807.34;4172448;28;20132;-73
2023/09/02 06:08:49;;;;;;;3.85;2.67;;;;;;;13.99;100.00;98814.53;4171757;28;20132;-73
2023/09/02 06:10:59;;;;;;;5.32;3.13;;;;;;;14.02;100.00;98810.94;4171600;28;20049;-73
2023/09/02 06:12:59;;;;;;;4.15;2.90;;;;;;;14.07;100.00;98816.13;4173582;28;20509;-73
2023/09/02 06:15:00;;;;;;;5.00;2.83;;;;;;;14.10;100.00;98815.34;4174559;28;20048;-73
2023/09/02 06:17:00;;;;;;;3.67;2.70;;;;;;;14.09;100.00;98816.53;4175191;28;20562;-73
2023/09/02 06:19:00;;;;;;;3.25;2.50;;;;;;;14.11;100.00;98830.06;4174977;28;20127;-73
2023/09/02 06:21:21;;;;;;;3.55;2.55;;;;;;;14.11;100.00;98827.28;4174892;28;20313;-73
2023/09/02 06:23:24;;;;;;;9.02;2.88;;;;;;;14.11;100.00;98827.28;4173931;28;20048;-73
2023/09/02 06:25:25;;;;;;;4.15;3.13;;;;;;;14.12;100.00;98826.06;4175099;28;20491;-73
2023/09/02 06:27:25;;;;;;;4.88;3.00;;;;;;;14.13;100.00;98831.25;4174371;28;20072;-73
2023/09/02 06:29:25;;;;;;;3.95;2.63;;;;;;;14.13;100.00;98836.81;4174305;28;20049;-73
2023/09/02 06:31:26;;;;;;;5.82;2.78;;;;;;;14.10;100.00;98840.38;4174979;28;20378;-73
2023/09/02 06:33:26;;;;;;;4.93;2.92;;;;;;;14.06;100.00;98839.56;4173493;28;20076;-73
2023/09/02 06:35:30;;;;;;;10.77;3.00;;;;;;;14.03;100.00;98841.16;4174699;28;20045;-73
2023/09/02 06:37:30;;;;;;;3.95;2.90;;;;;;;14.01;100.00;98842.75;4174579;28;20219;-73
2023/09/02 06:39:30;;;;;;;5.82;3.10;;;;;;;14.03;100.00;98849.50;4174341;28;20037;-73
2023/09/02 06:41:31;;;;;;;3.80;2.63;;;;;;;14.03;100.00;98846.72;4174336;28;20130;-73
2023/09/02 06:43:31;;;;;;;4.28;2.90;;;;;;;14.06;100.00;98853.47;4173566;28;20344;-73
2023/09/02 06:45:31;;;;;;;4.18;3.10;;;;;;;14.01;100.00;98854.66;4174212;28;20138;-73
2023/09/02 06:47:32;;;;;;;3.60;2.78;;;;;;;13.98;100.00;98857.41;4174498;28;20513;-73
2023/09/02 06:49:33;;;;;;;4.60;3.13;;;;;;;13.98;100.00;98855.47;4173080;28;20325;-73
2023/09/02 06:51:33;;;;;;;3.88;2.70;;;;;;;14.01;100.00;98859.44;4172553;28;20068;-73
2023/09/02 06:53:33;;;;;;;3.97;2.80;;;;;;;14.07;100.00;98855.09;4173409;28;20041;-73
2023/09/02 06:55:36;;;;;;;5.28;3.30;;;;;;;14.10;100.00;98857.06;4174080;28;20157;-73
2023/09/02 06:57:42;;;;;;;;;;;;;;;14.19;100.00;98859.50;4163881;28;20050;-73
2023/09/02 06:59:42;;;;;;;4.25;2.80;;;;;;;14.22;100.00;98869.81;4172930;28;19924;-73
2023/09/02 07:01:42;;;;;;;5.53;3.30;;;;;;;14.26;100.00;98862.28;4173011;28;20059;-73
2023/09/02 07:03:44;;;;;;;8.13;3.22;;;;;;;14.28;100.00;98855.13;4173636;28;20525;-73
2023/09/02 07:05:44;;;;;;;4.73;2.90;;;;;;;14.32;100.00;98863.50;4174241;28;20052;-73
2023/09/02 07:07:45;;;;;;;4.40;2.78;;;;;;;14.37;100.00;98865.91;4174038;28;20037;-73
2023/09/02 07:09:47;;;;;;;5.68;3.40;;;;;;;14.42;100.00;98864.72;4174053;28;20460;-73
2023/09/02 07:11:47;;;;;;;4.35;2.72;;;;;;;14.49;100.00;98873.94;4174008;28;20060;-73
2023/09/02 07:13:47;;;;;;;11.23;3.70;;;;;;;14.55;100.00;98882.66;4172465;28;20053;-73
2023/09/02 07:15:48;;;;;;;3.95;2.92;;;;;;;14.60;100.00;98880.31;4173524;28;20059;-73
2023/09/02 07:17:48;;;;;;;5.10;3.10;;;;;;;14.67;100.00;98879.53;4173661;28;20068;-73
2023/09/02 07:19:48;;;;;;;4.00;3.33;;;;;;;14.70;100.00;98881.50;4174317;28;20146;-73
2023/09/02 07:21:49;;;;;;;4.75;3.42;;;;;;;14.73;100.00;98883.50;4173656;28;20057;-73
2023/09/02 07:23:51;;;;;;;4.05;2.83;;;;;;;14.80;100.00;98888.28;4172111;28;20257;-73
2023/09/02 07:25:51;;;;;;;5.00;3.38;;;;;;;14.79;100.00;98889.47;4173947;28;20041;-73
2023/09/02 07:27:51;;;;;;;4.10;3.10;;;;;;;14.70;100.00;98889.84;4172652;28;20555;-73
2023/09/02 07:29:52;;;;;;;5.25;3.50;;;;;;;14.72;100.00;98898.59;4173222;28;20389;-73
2023/09/02 07:31:52;;;;;;;4.47;3.03;;;;;;;14.68;100.00;98895.03;4173492;28;20224;-73
2023/09/02 07:33:52;;;;;;;4.68;3.20;;;;;;;14.75;100.00;98906.19;4172647;28;20033;-73
2023/09/02 07:35:53;;;;;;;5.05;3.20;;;;;;;14.78;100.00;98896.22;4173625;28;20051;-73
2023/09/02 07:37:53;;;;;;;4.13;3.38;;;;;;;14.84;100.00;98909.38;4173893;28;20382;-73
2023/09/02 07:39:54;;;;;;;4.50;3.38;;;;;;;14.92;100.00;98907.41;4173348;28;20409;-73
2023/09/02 07:41:55;;;;;;;3.88;3.10;;;;;;;14.99;100.00;98914.97;4173189;28;20642;-73
2023/09/02 07:43:55;;;;;;;4.63;3.20;;;;;;;15.10;100.00;98901.84;4173037;28;20075;-73
2023/09/02 07:45:56;;;;;;;3.85;2.95;;;;;;;15.16;100.00;98900.25;4174260;28;20037;-73
2023/09/02 07:47:56;;;;;;;4.25;2.97;;;;;;;15.25;100.00;98906.22;4173597;28;20060;-73
2023/09/02 07:49:56;;;;;;;3.72;2.83;;;;;;;15.32;100.00;98913.78;4172790;28;20052;-73
2023/09/02 07:51:57;;;;;;;3.78;2.70;;;;;;;15.37;100.00;98907.78;4173029;28;20052;-73
2023/09/02 07:53:57;;;;;;;4.82;3.00;;;;;;;15.45;100.00;98903.81;4172430;28;20045;-72
2023/09/02 07:55:58;;;;;;;4.95;3.35;;;;;;;15.55;100.00;98896.59;4173012;28;20037;-72
2023/09/02 07:57:59;;;;;;;3.80;2.90;;;;;;;15.60;100.00;98899.78;4173609;28;20451;-73
2023/09/02 08:00:00;;;;;;;4.43;3.53;;;;;;;15.69;100.00;98907.78;4173154;28;20053;-73
2023/09/02 08:02:00;;;;;;;4.80;3.38;;;;;;;15.71;100.00;98911.75;4157613;28;20045;-73
2023/09/02 08:04:01;;;;;;;4.78;3.50;;;;;;;15.73;100.00;98912.16;4172043;28;20041;-73
2023/09/02 08:06:06;;;;;;;3.60;2.80;;;;;;;15.78;100.00;98912.94;4172926;28;20036;-73
2023/09/02 08:08:06;;;;;;;4.43;3.15;;;;;;;15.80;100.00;98916.91;4173237;28;20037;-73
2023/09/02 08:10:07;;;;;;;4.00;2.97;;;;;;;15.80;100.00;98918.91;4173275;28;20495;-73
2023/09/02 08:12:08;;;;;;;3.72;2.72;;;;;;;15.82;100.00;98925.69;4172752;28;20249;-73
2023/09/02 08:14:08;;;;;;;4.15;2.97;;;;;;;15.88;100.00;98917.69;4172307;28;20075;-73
2023/09/02 08:16:09;;;;;;;4.38;3.25;;;;;;;15.94;100.00;98913.28;4172514;28;20150;-73
2023/09/02 08:18:09;;;;;;;3.40;2.60;;;;;;;16.02;100.00;98917.66;4173410;28;20370;-73
2023/09/02 08:20:14;;;;;;;3.95;3.13;;;;;;;16.06;100.00;98920.44;4172598;28;20065;-73
2023/09/02 08:22:14;;;;;;;3.40;2.95;;;;;;;16.03;100.00;98927.59;4172601;28;20398;-73
2023/09/02 08:24:14;;;;;;;3.90;2.92;;;;;;;15.88;100.00;98932.44;4171857;28;20031;-73
2023/09/02 08:26:15;;;;;;;3.83;3.05;;;;;;;15.90;100.00;98929.25;4172475;28;20115;-73
2023/09/02 08:28:15;;;;;;;4.35;2.95;;;;;;;15.89;100.00;98922.09;4172633;28;20064;-73
2023/09/02 08:30:15;;;;;;;4.10;2.63;;;;;;;15.89;100.00;98927.66;4173250;28;20033;-73
2023/09/02 08:32:16;;;;;;;5.00;2.80;;;;;;;15.94;100.00;98938.41;4173376;28;20033;-73
2023/09/02 08:34:16;;;;;;;2.80;2.50;;;;;;;15.98;100.00;98936.41;4171629;28;20036;-73
2023/09/02 08:36:17;;;;;;;3.28;2.53;;;;;;;15.98;100.00;98939.19;4172061;28;20040;-73
2023/09/02 08:38:17;;;;;;;2.95;2.42;;;;;;;16.05;100.00;98944.75;4171623;28;20040;-73
2023/09/02 08:40:17;;;;;;;3.70;2.78;;;;;;;16.12;100.00;98944.72;4172486;28;20028;-73
2023/09/02 08:42:18;;;;;;;2.85;2.22;;;;;;;16.17;100.00;98951.91;4172981;28;20044;-73
2023/09/02 08:44:22;;;;;;;2.47;2.28;;;;;;;16.23;100.00;98956.66;4171728;28;20120;-73
2023/09/02 08:46:28;;;;;;;4.97;2.33;;;;;;;16.29;100.00;98952.22;4173547;28;20063;-73
2023/09/02 08:48:32;;;;;;;2.70;2.38;;;;;;;16.32;100.00;98969.41;4172836;28;20744;-73
2023/09/02 08:50:32;;;;;;;2.97;2.60;;;;;;;16.33;100.00;98963.41;4173126;28;20473;-73
2023/09/02 08:52:33;;;;;;;3.17;2.40;;;;;;;16.36;100.00;98970.16;4171396;28;20071;-73
2023/09/02 08:54:37;;;;;;;2.30;1.90;;;;;;;16.36;100.00;98965.38;4172323;28;20049;-73
2023/09/02 08:56:41;;;;;;;2.50;2.10;;;;;;;16.46;100.00;98966.53;4172344;28;20044;-73
2023/09/02 08:58:43;;;;;;;2.40;2.20;;;;;;;16.50;100.00;98975.69;4171998;28;20197;-73
2023/09/02 09:00:46;;;;;;;2.77;2.33;;;;;;;16.58;100.00;98971.69;4172945;28;20037;-73
2023/09/02 09:02:46;;;;;;;2.70;2.50;;;;;;;16.70;100.00;98973.22;4171505;28;20396;-73
2023/09/02 09:04:48;;;;;;;3.08;2.70;;;;;;;16.82;100.00;98975.56;4172399;28;20041;-73
2023/09/02 09:06:49;;;;;;;2.80;2.50;;;;;;;16.88;100.00;98976.75;4172707;28;20481;-73
2023/09/02 09:08:52;;;;;;;2.85;2.40;;;;;;;16.91;100.00;98977.91;4173136;28;20498;-73
2023/09/02 09:10:53;;;;;;;2.97;2.35;;;;;;;16.90;100.00;98979.13;4171904;28;20501;-72
2023/09/02 09:12:54;;;;;;;2.33;2.08;;;;;;;16.92;100.00;98983.09;4171997;28;20136;-73
2023/09/02 09:14:58;;;;;;;2.58;2.13;;;;;;;17.10;100.00;98977.38;4172099;28;20319;-73
2023/09/02 09:16:59;;;;;;;3.22;2.00;;;;;;;17.22;100.00;98981.72;4172653;28;20283;-73
2023/09/02 09:19:01;;;;;;;2.80;2.33;;;;;;;17.29;100.00;98985.22;4172620;28;20404;-73
2023/09/02 09:21:01;;;;;;;2.65;2.30;;;;;;;17.33;100.00;98988.81;4172157;28;20445;-73
2023/09/02 09:23:07;;;;;;;3.30;2.97;;;;;;;17.46;100.00;98991.09;4171789;28;20203;-73